sensor_id;sensor_type;location;lat;lon;timestamp;P1;durP1;ratioP1;P2;durP2;ratioP2
20122;SDS011;10222;50.848;4.336;2023-08-12T00:00:18;3.22;;;2.03;;
20122;SDS011;10222;50.848;4.336;2023-08-12T00:02:44;4.90;;;2.00;;
20122;SDS011;10222;50.848;4.336;2023-08-12T00:05:10;8.23;;;2.33;;
20122;SDS011;10222;50.848;4.336;2023-08-12T00:07:36;5.18;;;2.08;;
20122;SDS011;10222;50.848;4.336;2023-08-12T00:10:02;5.07;;;2.33;;
20122;SDS011;10222;50.848;4.336;2023-08-12T00:12:32;6.65;;;2.90;;
20122;SDS011;10222;50.848;4.336;2023-08-12T00:14:58;5.18;;;2.10;;
20122;SDS011;10222;50.848;4.336;2023-08-12T00:17:24;7.10;;;2.40;;
20122;SDS011;10222;50.848;4.336;2023-08-12T00:19:50;4.60;;;2.55;;
20122;SDS011;10222;50.848;4.336;2023-08-12T00:22:16;6.43;;;2.60;;
20122;SDS011;10222;50.848;4.336;2023-08-12T00:24:42;3.60;;;2.17;;
20122;SDS011;10222;50.848;4.336;2023-08-12T00:27:09;5.40;;;2.30;;
20122;SDS011;10222;50.848;4.336;2023-08-12T00:29:35;5.72;;;2.75;;
20122;SDS011;10222;50.848;4.336;2023-08-12T00:32:01;6.60;;;2.65;;
20122;SDS011;10222;50.848;4.336;2023-08-12T00:34:27;6.95;;;2.58;;
20122;SDS011;10222;50.848;4.336;2023-08-12T00:36:53;7.78;;;2.80;;
20122;SDS011;10222;50.848;4.336;2023-08-12T00:39:19;7.65;;;2.80;;
20122;SDS011;10222;50.848;4.336;2023-08-12T00:41:46;6.20;;;2.45;;
20122;SDS011;10222;50.848;4.336;2023-08-12T00:44:12;5.82;;;2.17;;
20122;SDS011;10222;50.848;4.336;2023-08-12T00:46:38;7.95;;;2.30;;
20122;SDS011;10222;50.848;4.336;2023-08-12T00:49:06;4.05;;;2.90;;
20122;SDS011;10222;50.848;4.336;2023-08-12T00:51:34;6.35;;;2.53;;
20122;SDS011;10222;50.848;4.336;2023-08-12T00:54:02;7.07;;;2.20;;
20122;SDS011;10222;50.848;4.336;2023-08-12T00:56:29;6.15;;;2.20;;
20122;SDS011;10222;50.848;4.336;2023-08-12T00:58:56;5.45;;;3.17;;
20122;SDS011;10222;50.848;4.336;2023-08-12T01:01:23;8.80;;;3.08;;
20122;SDS011;10222;50.848;4.336;2023-08-12T01:03:49;5.20;;;2.67;;
20122;SDS011;10222;50.848;4.336;2023-08-12T01:06:15;7.13;;;2.85;;
20122;SDS011;10222;50.848;4.336;2023-08-12T01:08:41;3.75;;;2.40;;
20122;SDS011;10222;50.848;4.336;2023-08-12T01:11:11;6.28;;;2.70;;
20122;SDS011;10222;50.848;4.336;2023-08-12T01:14:00;5.03;;;2.53;;
20122;SDS011;10222;50.848;4.336;2023-08-12T01:16:25;4.78;;;2.55;;
20122;SDS011;10222;50.848;4.336;2023-08-12T01:18:54;5.00;;;2.67;;
20122;SDS011;10222;50.848;4.336;2023-08-12T01:21:21;5.45;;;3.22;;
20122;SDS011;10222;50.848;4.336;2023-08-12T01:23:47;5.85;;;2.95;;
20122;SDS011;10222;50.848;4.336;2023-08-12T01:26:13;7.50;;;2.90;;
20122;SDS011;10222;50.848;4.336;2023-08-12T01:28:39;5.53;;;2.63;;
20122;SDS011;10222;50.848;4.336;2023-08-12T01:31:08;7.47;;;2.88;;
20122;SDS011;10222;50.848;4.336;2023-08-12T01:34:38;6.97;;;2.50;;
20122;SDS011;10222;50.848;4.336;2023-08-12T01:36:32;7.15;;;2.95;;
20122;SDS011;10222;50.848;4.336;2023-08-12T01:38:59;6.55;;;3.08;;
20122;SDS011;10222;50.848;4.336;2023-08-12T01:41:26;9.32;;;3.88;;
20122;SDS011;10222;50.848;4.336;2023-08-12T01:43:52;8.07;;;3.17;;
20122;SDS011;10222;50.848;4.336;2023-08-12T01:46:18;7.50;;;3.35;;
20122;SDS011;10222;50.848;4.336;2023-08-12T01:48:44;7.30;;;2.55;;
20122;SDS011;10222;50.848;4.336;2023-08-12T01:51:10;7.78;;;2.60;;
20122;SDS011;10222;50.848;4.336;2023-08-12T01:53:36;5.38;;;2.95;;
20122;SDS011;10222;50.848;4.336;2023-08-12T01:56:02;6.43;;;2.38;;
20122;SDS011;10222;50.848;4.336;2023-08-12T01:58:29;5.03;;;2.85;;
20122;SDS011;10222;50.848;4.336;2023-08-12T02:00:54;6.50;;;2.72;;
20122;SDS011;10222;50.848;4.336;2023-08-12T02:03:21;5.82;;;3.05;;
20122;SDS011;10222;50.848;4.336;2023-08-12T02:05:46;5.45;;;3.10;;
20122;SDS011;10222;50.848;4.336;2023-08-12T02:08:13;6.72;;;3.08;;
20122;SDS011;10222;50.848;4.336;2023-08-12T02:10:39;9.57;;;2.90;;
20122;SDS011;10222;50.848;4.336;2023-08-12T02:13:05;5.13;;;2.63;;
20122;SDS011;10222;50.848;4.336;2023-08-12T02:15:31;5.07;;;2.42;;
20122;SDS011;10222;50.848;4.336;2023-08-12T02:17:57;8.00;;;3.28;;
20122;SDS011;10222;50.848;4.336;2023-08-12T02:20:24;6.20;;;2.70;;
20122;SDS011;10222;50.848;4.336;2023-08-12T02:22:50;7.45;;;2.90;;
20122;SDS011;10222;50.848;4.336;2023-08-12T02:25:16;6.32;;;3.38;;
20122;SDS011;10222;50.848;4.336;2023-08-12T02:27:42;7.05;;;2.92;;
20122;SDS011;10222;50.848;4.336;2023-08-12T02:30:08;11.63;;;3.30;;
20122;SDS011;10222;50.848;4.336;2023-08-12T02:32:35;5.25;;;3.42;;
20122;SDS011;10222;50.848;4.336;2023-08-12T02:35:01;9.00;;;3.40;;
20122;SDS011;10222;50.848;4.336;2023-08-12T02:37:27;5.05;;;2.90;;
20122;SDS011;10222;50.848;4.336;2023-08-12T02:39:53;7.90;;;3.50;;
20122;SDS011;10222;50.848;4.336;2023-08-12T02:42:19;5.05;;;3.03;;
20122;SDS011;10222;50.848;4.336;2023-08-12T02:44:45;6.13;;;3.10;;
20122;SDS011;10222;50.848;4.336;2023-08-12T02:47:12;8.15;;;3.08;;
20122;SDS011;10222;50.848;4.336;2023-08-12T02:49:38;6.15;;;3.15;;
20122;SDS011;10222;50.848;4.336;2023-08-12T02:52:04;4.72;;;2.85;;
20122;SDS011;10222;50.848;4.336;2023-08-12T02:54:30;9.75;;;3.72;;
20122;SDS011;10222;50.848;4.336;2023-08-12T02:56:56;7.93;;;3.25;;
20122;SDS011;10222;50.848;4.336;2023-08-12T02:59:22;6.97;;;3.20;;
20122;SDS011;10222;50.848;4.336;2023-08-12T03:01:50;5.93;;;3.20;;
20122;SDS011;10222;50.848;4.336;2023-08-12T03:04:17;8.63;;;3.80;;
20122;SDS011;10222;50.848;4.336;2023-08-12T03:06:43;6.00;;;2.90;;
20122;SDS011;10222;50.848;4.336;2023-08-12T03:09:09;8.50;;;3.10;;
20122;SDS011;10222;50.848;4.336;2023-08-12T03:11:35;9.00;;;3.70;;
20122;SDS011;10222;50.848;4.336;2023-08-12T03:14:02;5.60;;;3.25;;
20122;SDS011;10222;50.848;4.336;2023-08-12T03:16:28;6.78;;;3.80;;
20122;SDS011;10222;50.848;4.336;2023-08-12T03:18:54;10.93;;;3.95;;
20122;SDS011;10222;50.848;4.336;2023-08-12T03:21:20;8.20;;;3.92;;
20122;SDS011;10222;50.848;4.336;2023-08-12T03:23:46;9.50;;;3.97;;
20122;SDS011;10222;50.848;4.336;2023-08-12T03:26:12;4.93;;;3.53;;
20122;SDS011;10222;50.848;4.336;2023-08-12T03:28:39;9.30;;;3.88;;
20122;SDS011;10222;50.848;4.336;2023-08-12T03:31:05;9.18;;;3.78;;
20122;SDS011;10222;50.848;4.336;2023-08-12T03:33:31;7.95;;;4.18;;
20122;SDS011;10222;50.848;4.336;2023-08-12T03:35:58;6.97;;;3.90;;
20122;SDS011;10222;50.848;4.336;2023-08-12T03:38:24;7.97;;;4.35;;
20122;SDS011;10222;50.848;4.336;2023-08-12T03:40:50;6.40;;;4.30;;
20122;SDS011;10222;50.848;4.336;2023-08-12T03:43:16;7.93;;;4.07;;
20122;SDS011;10222;50.848;4.336;2023-08-12T03:45:43;6.68;;;4.15;;
20122;SDS011;10222;50.848;4.336;2023-08-12T03:48:09;4.65;;;3.17;;
20122;SDS011;10222;50.848;4.336;2023-08-12T03:50:36;6.28;;;3.92;;
20122;SDS011;10222;50.848;4.336;2023-08-12T03:53:03;6.13;;;3.90;;
20122;SDS011;10222;50.848;4.336;2023-08-12T03:55:32;4.75;;;2.97;;
20122;SDS011;10222;50.848;4.336;2023-08-12T03:57:59;6.82;;;3.63;;
20122;SDS011;10222;50.848;4.336;2023-08-12T04:00:25;10.93;;;3.55;;
20122;SDS011;10222;50.848;4.336;2023-08-12T04:02:51;5.15;;;2.97;;
20122;SDS011;10222;50.848;4.336;2023-08-12T04:05:17;5.27;;;3.00;;
20122;SDS011;10222;50.848;4.336;2023-08-12T04:07:43;4.43;;;2.70;;
20122;SDS011;10222;50.848;4.336;2023-08-12T04:10:09;7.57;;;3.30;;
20122;SDS011;10222;50.848;4.336;2023-08-12T04:12:35;4.90;;;2.97;;
20122;SDS011;10222;50.848;4.336;2023-08-12T04:15:01;4.67;;;2.70;;
20122;SDS011;10222;50.848;4.336;2023-08-12T04:17:29;5.18;;;3.13;;
20122;SDS011;10222;50.848;4.336;2023-08-12T04:19:55;6.32;;;2.90;;
20122;SDS011;10222;50.848;4.336;2023-08-12T04:22:22;5.13;;;2.78;;
20122;SDS011;10222;50.848;4.336;2023-08-12T04:24:48;4.45;;;2.50;;
20122;SDS011;10222;50.848;4.336;2023-08-12T04:27:13;7.10;;;2.35;;
20122;SDS011;10222;50.848;4.336;2023-08-12T04:29:41;3.97;;;2.53;;
20122;SDS011;10222;50.848;4.336;2023-08-12T04:32:07;3.45;;;2.80;;
20122;SDS011;10222;50.848;4.336;2023-08-12T04:34:33;5.22;;;2.65;;
20122;SDS011;10222;50.848;4.336;2023-08-12T04:37:00;2.80;;;2.20;;
20122;SDS011;10222;50.848;4.336;2023-08-12T04:39:26;3.78;;;2.67;;
20122;SDS011;10222;50.848;4.336;2023-08-12T04:41:52;4.28;;;2.10;;
20122;SDS011;10222;50.848;4.336;2023-08-12T04:44:18;3.78;;;2.20;;
20122;SDS011;10222;50.848;4.336;2023-08-12T04:46:44;3.58;;;2.53;;
20122;SDS011;10222;50.848;4.336;2023-08-12T04:49:11;4.28;;;2.63;;
20122;SDS011;10222;50.848;4.336;2023-08-12T04:51:37;3.25;;;2.30;;
20122;SDS011;10222;50.848;4.336;2023-08-12T04:54:03;3.65;;;2.53;;
20122;SDS011;10222;50.848;4.336;2023-08-12T04:56:29;3.07;;;2.27;;
20122;SDS011;10222;50.848;4.336;2023-08-12T04:58:56;3.87;;;2.63;;
20122;SDS011;10222;50.848;4.336;2023-08-12T05:01:22;4.47;;;2.55;;
20122;SDS011;10222;50.848;4.336;2023-08-12T05:03:48;4.68;;;2.72;;
20122;SDS011;10222;50.848;4.336;2023-08-12T05:06:14;3.70;;;2.87;;
20122;SDS011;10222;50.848;4.336;2023-08-12T05:08:40;3.53;;;2.53;;
20122;SDS011;10222;50.848;4.336;2023-08-12T05:11:06;2.63;;;2.40;;
20122;SDS011;10222;50.848;4.336;2023-08-12T05:13:31;3.80;;;3.03;;
20122;SDS011;10222;50.848;4.336;2023-08-12T05:15:57;6.00;;;3.37;;
20122;SDS011;10222;50.848;4.336;2023-08-12T05:18:23;4.87;;;3.00;;
20122;SDS011;10222;50.848;4.336;2023-08-12T05:20:51;3.05;;;2.72;;
20122;SDS011;10222;50.848;4.336;2023-08-12T05:23:17;3.60;;;2.80;;
20122;SDS011;10222;50.848;4.336;2023-08-12T05:25:43;5.13;;;3.30;;
20122;SDS011;10222;50.848;4.336;2023-08-12T05:28:09;4.30;;;3.20;;
20122;SDS011;10222;50.848;4.336;2023-08-12T05:30:35;4.80;;;3.33;;
20122;SDS011;10222;50.848;4.336;2023-08-12T05:33:02;3.50;;;2.78;;
20122;SDS011;10222;50.848;4.336;2023-08-12T05:35:28;5.10;;;3.42;;
20122;SDS011;10222;50.848;4.336;2023-08-12T05:37:58;7.10;;;4.03;;
20122;SDS011;10222;50.848;4.336;2023-08-12T05:40:24;5.37;;;3.70;;
20122;SDS011;10222;50.848;4.336;2023-08-12T05:42:50;5.03;;;3.80;;
20122;SDS011;10222;50.848;4.336;2023-08-12T05:45:16;6.13;;;4.60;;
20122;SDS011;10222;50.848;4.336;2023-08-12T05:47:42;5.80;;;4.00;;
20122;SDS011;10222;50.848;4.336;2023-08-12T05:50:08;6.18;;;4.30;;
20122;SDS011;10222;50.848;4.336;2023-08-12T05:52:34;9.57;;;4.20;;
20122;SDS011;10222;50.848;4.336;2023-08-12T05:55:00;5.63;;;4.15;;
20122;SDS011;10222;50.848;4.336;2023-08-12T05:57:27;5.30;;;4.07;;
20122;SDS011;10222;50.848;4.336;2023-08-12T05:59:53;5.88;;;3.67;;
20122;SDS011;10222;50.848;4.336;2023-08-12T06:02:20;3.73;;;3.10;;
20122;SDS011;10222;50.848;4.336;2023-08-12T06:04:46;4.30;;;3.33;;
20122;SDS011;10222;50.848;4.336;2023-08-12T06:07:12;5.82;;;3.67;;
20122;SDS011;10222;50.848;4.336;2023-08-12T06:09:38;6.43;;;3.20;;
20122;SDS011;10222;50.848;4.336;2023-08-12T06:12:04;4.20;;;3.05;;
20122;SDS011;10222;50.848;4.336;2023-08-12T06:14:30;5.70;;;3.43;;
20122;SDS011;10222;50.848;4.336;2023-08-12T06:16:58;3.30;;;2.65;;
20122;SDS011;10222;50.848;4.336;2023-08-12T06:19:24;4.53;;;2.78;;
20122;SDS011;10222;50.848;4.336;2023-08-12T06:21:50;3.10;;;2.33;;
20122;SDS011;10222;50.848;4.336;2023-08-12T06:24:16;3.45;;;2.50;;
20122;SDS011;10222;50.848;4.336;2023-08-12T06:26:42;3.33;;;2.25;;
20122;SDS011;10222;50.848;4.336;2023-08-12T06:29:08;3.67;;;2.50;;
20122;SDS011;10222;50.848;4.336;2023-08-12T06:31:34;5.73;;;2.77;;
20122;SDS011;10222;50.848;4.336;2023-08-12T06:34:01;3.00;;;2.10;;
20122;SDS011;10222;50.848;4.336;2023-08-12T06:36:27;2.97;;;2.43;;
20122;SDS011;10222;50.848;4.336;2023-08-12T06:38:55;4.35;;;1.95;;
20122;SDS011;10222;50.848;4.336;2023-08-12T06:41:21;3.63;;;2.50;;
20122;SDS011;10222;50.848;4.336;2023-08-12T06:43:47;2.95;;;1.90;;
20122;SDS011;10222;50.848;4.336;2023-08-12T06:46:13;3.23;;;2.00;;
20122;SDS011;10222;50.848;4.336;2023-08-12T06:48:39;4.05;;;2.03;;
20122;SDS011;10222;50.848;4.336;2023-08-12T06:51:05;4.20;;;1.73;;
20122;SDS011;10222;50.848;4.336;2023-08-12T06:53:35;4.30;;;1.60;;
20122;SDS011;10222;50.848;4.336;2023-08-12T06:56:01;2.78;;;1.95;;
20122;SDS011;10222;50.848;4.336;2023-08-12T06:58:27;1.27;;;1.17;;
20122;SDS011;10222;50.848;4.336;2023-08-12T07:00:54;3.22;;;2.03;;
20122;SDS011;10222;50.848;4.336;2023-08-12T07:03:20;2.13;;;1.55;;
20122;SDS011;10222;50.848;4.336;2023-08-12T07:05:46;3.67;;;2.40;;
20122;SDS011;10222;50.848;4.336;2023-08-12T07:08:12;8.50;;;4.47;;
20122;SDS011;10222;50.848;4.336;2023-08-12T07:10:38;8.27;;;5.80;;
20122;SDS011;10222;50.848;4.336;2023-08-12T07:13:04;8.17;;;5.87;;
20122;SDS011;10222;50.848;4.336;2023-08-12T07:15:30;10.43;;;6.90;;
20122;SDS011;10222;50.848;4.336;2023-08-12T07:17:56;10.50;;;7.50;;
20122;SDS011;10222;50.848;4.336;2023-08-12T07:20:22;11.63;;;8.25;;
20122;SDS011;10222;50.848;4.336;2023-08-12T07:22:48;13.93;;;9.20;;
20122;SDS011;10222;50.848;4.336;2023-08-12T07:25:15;13.97;;;10.13;;
20122;SDS011;10222;50.848;4.336;2023-08-12T07:27:41;13.87;;;9.67;;
20122;SDS011;10222;50.848;4.336;2023-08-12T07:30:07;14.07;;;10.80;;
20122;SDS011;10222;50.848;4.336;2023-08-12T07:32:34;14.53;;;9.77;;
20122;SDS011;10222;50.848;4.336;2023-08-12T07:35:00;16.73;;;10.63;;
20122;SDS011;10222;50.848;4.336;2023-08-12T07:37:28;13.27;;;9.73;;
20122;SDS011;10222;50.848;4.336;2023-08-12T07:39:54;11.27;;;7.77;;
20122;SDS011;10222;50.848;4.336;2023-08-12T07:42:20;11.27;;;8.03;;
20122;SDS011;10222;50.848;4.336;2023-08-12T07:44:46;9.30;;;6.47;;
20122;SDS011;10222;50.848;4.336;2023-08-12T07:47:12;10.90;;;7.40;;
20122;SDS011;10222;50.848;4.336;2023-08-12T07:49:38;11.70;;;7.23;;
20122;SDS011;10222;50.848;4.336;2023-08-12T07:52:04;9.80;;;7.60;;
20122;SDS011;10222;50.848;4.336;2023-08-12T07:54:30;10.60;;;7.73;;
20122;SDS011;10222;50.848;4.336;2023-08-12T07:56:56;10.53;;;7.43;;
20122;SDS011;10222;50.848;4.336;2023-08-12T07:59:22;10.37;;;7.47;;
20122;SDS011;10222;50.848;4.336;2023-08-12T08:01:48;10.13;;;7.67;;
20122;SDS011;10222;50.848;4.336;2023-08-12T08:04:14;10.27;;;7.70;;
20122;SDS011;10222;50.848;4.336;2023-08-12T08:06:40;9.80;;;6.80;;
20122;SDS011;10222;50.848;4.336;2023-08-12T08:09:06;11.40;;;8.03;;
20122;SDS011;10222;50.848;4.336;2023-08-12T08:11:32;7.90;;;5.83;;
20122;SDS011;10222;50.848;4.336;2023-08-12T08:13:59;9.57;;;6.50;;
20122;SDS011;10222;50.848;4.336;2023-08-12T08:16:25;8.83;;;6.30;;
20122;SDS011;10222;50.848;4.336;2023-08-12T08:18:51;7.53;;;5.00;;
20122;SDS011;10222;50.848;4.336;2023-08-12T08:21:18;8.03;;;4.20;;
20122;SDS011;10222;50.848;4.336;2023-08-12T08:23:44;5.27;;;4.13;;
20122;SDS011;10222;50.848;4.336;2023-08-12T08:26:10;4.37;;;3.37;;
20122;SDS011;10222;50.848;4.336;2023-08-12T08:28:37;4.67;;;3.97;;
20122;SDS011;10222;50.848;4.336;2023-08-12T08:31:03;5.30;;;4.10;;
20122;SDS011;10222;50.848;4.336;2023-08-12T08:33:29;4.17;;;3.03;;
20122;SDS011;10222;50.848;4.336;2023-08-12T08:35:55;2.87;;;2.03;;
20122;SDS011;10222;50.848;4.336;2023-08-12T08:38:21;3.10;;;2.08;;
20122;SDS011;10222;50.848;4.336;2023-08-12T08:40:48;3.70;;;2.20;;
20122;SDS011;10222;50.848;4.336;2023-08-12T08:43:15;2.53;;;1.90;;
20122;SDS011;10222;50.848;4.336;2023-08-12T08:45:43;3.80;;;1.90;;
20122;SDS011;10222;50.848;4.336;2023-08-12T08:48:10;2.90;;;1.83;;
20122;SDS011;10222;50.848;4.336;2023-08-12T08:50:37;5.83;;;2.07;;
20122;SDS011;10222;50.848;4.336;2023-08-12T08:53:04;2.33;;;1.60;;
20122;SDS011;10222;50.848;4.336;2023-08-12T08:55:32;4.23;;;1.97;;
20122;SDS011;10222;50.848;4.336;2023-08-12T08:57:57;3.67;;;1.97;;
20122;SDS011;10222;50.848;4.336;2023-08-12T09:00:24;2.60;;;1.70;;
20122;SDS011;10222;50.848;4.336;2023-08-12T09:02:50;1.80;;;1.40;;
20122;SDS011;10222;50.848;4.336;2023-08-12T09:05:17;2.30;;;1.37;;
20122;SDS011;10222;50.848;4.336;2023-08-12T09:07:43;3.23;;;1.40;;
20122;SDS011;10222;50.848;4.336;2023-08-12T09:10:10;2.63;;;1.37;;
20122;SDS011;10222;50.848;4.336;2023-08-12T09:12:36;3.10;;;1.43;;
20122;SDS011;10222;50.848;4.336;2023-08-12T09:15:02;2.60;;;1.30;;
20122;SDS011;10222;50.848;4.336;2023-08-12T09:17:29;2.53;;;1.40;;
20122;SDS011;10222;50.848;4.336;2023-08-12T09:19:57;1.20;;;1.00;;
20122;SDS011;10222;50.848;4.336;2023-08-12T09:22:24;3.23;;;1.20;;
20122;SDS011;10222;50.848;4.336;2023-08-12T09:24:50;3.53;;;1.07;;
20122;SDS011;10222;50.848;4.336;2023-08-12T09:27:21;2.07;;;1.17;;
20122;SDS011;10222;50.848;4.336;2023-08-12T09:29:47;2.63;;;1.23;;
20122;SDS011;10222;50.848;4.336;2023-08-12T09:32:17;3.23;;;1.33;;
20122;SDS011;10222;50.848;4.336;2023-08-12T09:34:53;1.90;;;1.10;;
20122;SDS011;10222;50.848;4.336;2023-08-12T09:37:20;1.23;;;0.93;;
20122;SDS011;10222;50.848;4.336;2023-08-12T09:39:47;2.22;;;0.80;;
20122;SDS011;10222;50.848;4.336;2023-08-12T09:42:14;4.37;;;1.07;;
20122;SDS011;10222;50.848;4.336;2023-08-12T09:44:40;2.20;;;0.82;;
20122;SDS011;10222;50.848;4.336;2023-08-12T09:47:07;2.10;;;0.80;;
20122;SDS011;10222;50.848;4.336;2023-08-12T09:49:33;4.30;;;0.93;;
20122;SDS011;10222;50.848;4.336;2023-08-12T09:52:00;2.33;;;1.20;;
20122;SDS011;10222;50.848;4.336;2023-08-12T09:54:27;2.00;;;0.80;;
20122;SDS011;10222;50.848;4.336;2023-08-12T09:56:57;2.67;;;1.10;;
20122;SDS011;10222;50.848;4.336;2023-08-12T09:59:36;4.18;;;1.00;;
20122;SDS011;10222;50.848;4.336;2023-08-12T10:02:03;5.47;;;1.48;;
20122;SDS011;10222;50.848;4.336;2023-08-12T10:04:39;2.20;;;1.03;;
20122;SDS011;10222;50.848;4.336;2023-08-12T10:07:06;6.37;;;1.27;;
20122;SDS011;10222;50.848;4.336;2023-08-12T10:09:32;5.60;;;1.07;;
20122;SDS011;10222;50.848;4.336;2023-08-12T10:11:58;2.47;;;1.17;;
20122;SDS011;10222;50.848;4.336;2023-08-12T10:14:25;2.47;;;0.90;;
20122;SDS011;10222;50.848;4.336;2023-08-12T10:16:51;2.50;;;0.80;;
20122;SDS011;10222;50.848;4.336;2023-08-12T10:19:17;1.73;;;0.90;;
20122;SDS011;10222;50.848;4.336;2023-08-12T10:21:46;5.55;;;1.13;;
20122;SDS011;10222;50.848;4.336;2023-08-12T10:24:13;2.17;;;0.90;;
20122;SDS011;10222;50.848;4.336;2023-08-12T10:26:42;2.55;;;0.85;;
20122;SDS011;10222;50.848;4.336;2023-08-12T10:29:08;2.42;;;0.98;;
20122;SDS011;10222;50.848;4.336;2023-08-12T10:31:34;2.97;;;1.02;;
20122;SDS011;10222;50.848;4.336;2023-08-12T10:34:01;2.47;;;0.60;;
20122;SDS011;10222;50.848;4.336;2023-08-12T10:36:28;3.72;;;1.25;;
20122;SDS011;10222;50.848;4.336;2023-08-12T10:38:55;5.07;;;1.48;;
20122;SDS011;10222;50.848;4.336;2023-08-12T10:41:22;5.50;;;1.30;;
20122;SDS011;10222;50.848;4.336;2023-08-12T10:43:52;3.13;;;1.00;;
20122;SDS011;10222;50.848;4.336;2023-08-12T10:51:53;4.28;;;1.20;;
20122;SDS011;10222;50.848;4.336;2023-08-12T10:57:10;1.73;;;0.93;;
20122;SDS011;10222;50.848;4.336;2023-08-12T11:05:00;4.20;;;0.90;;
20122;SDS011;10222;50.848;4.336;2023-08-12T11:07:48;2.50;;;0.90;;
20122;SDS011;10222;50.848;4.336;2023-08-12T11:10:17;4.47;;;1.27;;
20122;SDS011;10222;50.848;4.336;2023-08-12T11:12:54;3.95;;;1.20;;
20122;SDS011;10222;50.848;4.336;2023-08-12T11:15:42;4.22;;;0.80;;
20122;SDS011;10222;50.848;4.336;2023-08-12T11:20:33;2.13;;;0.80;;
20122;SDS011;10222;50.848;4.336;2023-08-12T11:23:01;3.42;;;1.30;;
20122;SDS011;10222;50.848;4.336;2023-08-12T11:25:28;1.50;;;0.73;;
20122;SDS011;10222;50.848;4.336;2023-08-12T11:27:56;3.13;;;1.55;;
20122;SDS011;10222;50.848;4.336;2023-08-12T11:30:22;3.38;;;0.75;;
20122;SDS011;10222;50.848;4.336;2023-08-12T11:32:49;4.57;;;0.88;;
20122;SDS011;10222;50.848;4.336;2023-08-12T11:35:17;7.03;;;0.85;;
20122;SDS011;10222;50.848;4.336;2023-08-12T11:37:45;2.90;;;0.82;;
20122;SDS011;10222;50.848;4.336;2023-08-12T11:40:12;1.73;;;0.60;;
20122;SDS011;10222;50.848;4.336;2023-08-12T11:42:41;3.65;;;0.77;;
20122;SDS011;10222;50.848;4.336;2023-08-12T11:45:07;4.18;;;1.15;;
20122;SDS011;10222;50.848;4.336;2023-08-12T11:47:37;3.00;;;0.77;;
20122;SDS011;10222;50.848;4.336;2023-08-12T11:50:04;3.05;;;1.00;;
20122;SDS011;10222;50.848;4.336;2023-08-12T11:52:30;7.13;;;0.90;;
20122;SDS011;10222;50.848;4.336;2023-08-12T11:54:57;3.83;;;1.17;;
20122;SDS011;10222;50.848;4.336;2023-08-12T11:57:23;1.92;;;0.65;;
20122;SDS011;10222;50.848;4.336;2023-08-12T11:59:50;2.88;;;0.88;;
20122;SDS011;10222;50.848;4.336;2023-08-12T12:02:16;2.33;;;0.70;;
20122;SDS011;10222;50.848;4.336;2023-08-12T12:04:42;2.67;;;0.82;;
20122;SDS011;10222;50.848;4.336;2023-08-12T12:07:30;5.20;;;0.70;;
20122;SDS011;10222;50.848;4.336;2023-08-12T12:09:56;1.88;;;0.73;;
20122;SDS011;10222;50.848;4.336;2023-08-12T12:12:25;2.15;;;0.88;;
20122;SDS011;10222;50.848;4.336;2023-08-12T12:14:52;4.72;;;0.70;;
20122;SDS011;10222;50.848;4.336;2023-08-12T12:17:22;1.73;;;0.60;;
20122;SDS011;10222;50.848;4.336;2023-08-12T12:19:55;4.80;;;1.13;;
20122;SDS011;10222;50.848;4.336;2023-08-12T12:22:25;3.08;;;0.90;;
20122;SDS011;10222;50.848;4.336;2023-08-12T12:24:52;1.42;;;0.50;;
20122;SDS011;10222;50.848;4.336;2023-08-12T12:27:18;1.77;;;0.70;;
20122;SDS011;10222;50.848;4.336;2023-08-12T12:29:44;1.67;;;0.70;;
20122;SDS011;10222;50.848;4.336;2023-08-12T12:32:10;3.70;;;0.70;;
20122;SDS011;10222;50.848;4.336;2023-08-12T12:34:37;2.03;;;0.77;;
20122;SDS011;10222;50.848;4.336;2023-08-12T12:37:04;2.30;;;0.57;;
20122;SDS011;10222;50.848;4.336;2023-08-12T12:39:30;3.92;;;1.05;;
20122;SDS011;10222;50.848;4.336;2023-08-12T12:41:56;4.78;;;1.02;;
20122;SDS011;10222;50.848;4.336;2023-08-12T12:44:24;3.38;;;0.90;;
20122;SDS011;10222;50.848;4.336;2023-08-12T12:46:50;3.30;;;0.75;;
20122;SDS011;10222;50.848;4.336;2023-08-12T12:49:16;4.97;;;0.82;;
20122;SDS011;10222;50.848;4.336;2023-08-12T12:51:42;2.80;;;1.00;;
20122;SDS011;10222;50.848;4.336;2023-08-12T12:54:08;2.45;;;1.10;;
20122;SDS011;10222;50.848;4.336;2023-08-12T12:56:34;4.32;;;1.55;;
20122;SDS011;10222;50.848;4.336;2023-08-12T12:59:01;4.78;;;1.48;;
20122;SDS011;10222;50.848;4.336;2023-08-12T13:01:27;3.15;;;1.30;;
20122;SDS011;10222;50.848;4.336;2023-08-12T13:03:54;3.35;;;1.35;;
20122;SDS011;10222;50.848;4.336;2023-08-12T13:06:20;3.55;;;1.10;;
20122;SDS011;10222;50.848;4.336;2023-08-12T13:08:46;1.65;;;1.20;;
20122;SDS011;10222;50.848;4.336;2023-08-12T13:11:12;3.65;;;1.40;;
20122;SDS011;10222;50.848;4.336;2023-08-12T13:13:38;2.47;;;1.20;;
20122;SDS011;10222;50.848;4.336;2023-08-12T13:16:04;2.53;;;1.80;;
20122;SDS011;10222;50.848;4.336;2023-08-12T13:18:30;5.82;;;1.50;;
20122;SDS011;10222;50.848;4.336;2023-08-12T13:20:56;2.65;;;1.55;;
20122;SDS011;10222;50.848;4.336;2023-08-12T13:23:22;2.15;;;1.05;;
20122;SDS011;10222;50.848;4.336;2023-08-12T13:25:48;3.15;;;1.38;;
20122;SDS011;10222;50.848;4.336;2023-08-12T13:28:14;4.13;;;1.10;;
20122;SDS011;10222;50.848;4.336;2023-08-12T13:30:40;2.10;;;1.10;;
20122;SDS011;10222;50.848;4.336;2023-08-12T13:33:06;2.53;;;0.90;;
20122;SDS011;10222;50.848;4.336;2023-08-12T13:35:33;4.05;;;0.93;;
20122;SDS011;10222;50.848;4.336;2023-08-12T13:37:59;2.22;;;0.88;;
20122;SDS011;10222;50.848;4.336;2023-08-12T13:40:25;2.67;;;0.90;;
20122;SDS011;10222;50.848;4.336;2023-08-12T13:42:51;4.20;;;0.98;;
20122;SDS011;10222;50.848;4.336;2023-08-12T13:45:17;3.25;;;1.00;;
20122;SDS011;10222;50.848;4.336;2023-08-12T13:47:43;3.60;;;1.02;;
20122;SDS011;10222;50.848;4.336;2023-08-12T13:50:09;2.58;;;0.90;;
20122;SDS011;10222;50.848;4.336;2023-08-12T13:52:36;1.92;;;1.00;;
20122;SDS011;10222;50.848;4.336;2023-08-12T13:55:03;2.80;;;1.23;;
20122;SDS011;10222;50.848;4.336;2023-08-12T13:57:29;4.22;;;1.02;;
20122;SDS011;10222;50.848;4.336;2023-08-12T13:59:56;2.53;;;0.80;;
20122;SDS011;10222;50.848;4.336;2023-08-12T14:02:22;2.13;;;0.90;;
20122;SDS011;10222;50.848;4.336;2023-08-12T14:04:48;1.23;;;0.68;;
20122;SDS011;10222;50.848;4.336;2023-08-12T14:07:15;2.47;;;1.08;;
20122;SDS011;10222;50.848;4.336;2023-08-12T14:09:41;2.25;;;1.10;;
20122;SDS011;10222;50.848;4.336;2023-08-12T14:12:07;3.00;;;1.13;;
20122;SDS011;10222;50.848;4.336;2023-08-12T14:14:33;3.25;;;0.90;;
20122;SDS011;10222;50.848;4.336;2023-08-12T14:16:59;5.60;;;0.98;;
20122;SDS011;10222;50.848;4.336;2023-08-12T14:19:25;3.25;;;0.90;;
20122;SDS011;10222;50.848;4.336;2023-08-12T14:21:51;1.77;;;0.88;;
20122;SDS011;10222;50.848;4.336;2023-08-12T14:24:17;2.50;;;1.02;;
20122;SDS011;10222;50.848;4.336;2023-08-12T14:26:43;2.47;;;0.93;;
20122;SDS011;10222;50.848;4.336;2023-08-12T14:29:09;4.03;;;1.00;;
20122;SDS011;10222;50.848;4.336;2023-08-12T14:31:35;7.22;;;1.00;;
20122;SDS011;10222;50.848;4.336;2023-08-12T14:34:01;3.03;;;1.00;;
20122;SDS011;10222;50.848;4.336;2023-08-12T14:36:28;2.22;;;0.57;;
20122;SDS011;10222;50.848;4.336;2023-08-12T14:38:54;4.97;;;1.10;;
20122;SDS011;10222;50.848;4.336;2023-08-12T14:41:20;4.00;;;0.80;;
20122;SDS011;10222;50.848;4.336;2023-08-12T14:43:46;1.67;;;0.70;;
20122;SDS011;10222;50.848;4.336;2023-08-12T14:46:12;2.70;;;0.95;;
20122;SDS011;10222;50.848;4.336;2023-08-12T14:48:38;4.15;;;1.40;;
20122;SDS011;10222;50.848;4.336;2023-08-12T14:51:04;2.60;;;0.85;;
20122;SDS011;10222;50.848;4.336;2023-08-12T14:53:30;3.58;;;1.40;;
20122;SDS011;10222;50.848;4.336;2023-08-12T14:55:56;5.68;;;1.23;;
20122;SDS011;10222;50.848;4.336;2023-08-12T14:58:22;3.25;;;1.00;;